Alne, United Kingdom
Current Conditions -  °F | °C
As of 2:50 AM on Tuesday 21 Oct 2014 (Local Time) from EGXU Reporting Station
Broken Clouds Broken Clouds  
Wind Chill: 13°   Ceiling: 2200
Heat Index: 13°   Visibility: NA
Dew Point:   Wind: 20mph
Humidity: 77%   Direction: 190°S
Pressure: 29.47"   Gusts: NA
Location:  54.08°N, 1.1°W
Report Text: EGXU 210150Z AUTO 19017KT //// // BKN022/// 13/09 Q0998
Loading
Personal Weather Stations






























Interactive Weather Map
Tropical Storm Tracking
New forecast layout! Learn more

10-Day Weather Forecast

Advertisements
Track Severe Weather on mobile